createdAt,value
2019-05-10T00:00:08.802Z,89.90
2019-05-10T00:02:55.140Z,89.20
2019-05-10T00:05:40.858Z,89.00
2019-05-10T00:08:26.738Z,88.20
2019-05-10T00:11:32.591Z,88.20
2019-05-10T00:14:33.348Z,88.80
2019-05-10T00:17:13.051Z,88.20
2019-05-10T00:19:40.493Z,88.80
2019-05-10T00:22:07.943Z,89.20
2019-05-10T00:24:35.526Z,89.00
2019-05-10T00:27:03.422Z,89.00
2019-05-10T00:29:32.059Z,88.80
2019-05-10T00:31:59.699Z,89.00
2019-05-10T00:34:27.189Z,88.80
2019-05-10T00:36:54.646Z,89.00
2019-05-10T00:39:22.138Z,89.40
2019-05-10T00:41:49.672Z,89.40
2019-05-10T00:44:17.309Z,89.60
2019-05-10T00:46:44.816Z,89.90
2019-05-10T00:49:12.251Z,89.70
2019-05-10T00:51:39.715Z,89.90
2019-05-10T00:54:08.169Z,89.70
2019-05-10T00:56:35.690Z,89.70
2019-05-10T00:59:03.211Z,89.70
2019-05-10T01:01:52.447Z,89.70
2019-05-10T01:04:23.171Z,89.70
2019-05-10T01:06:50.639Z,89.70
2019-05-10T01:09:18.163Z,89.40
2019-05-10T01:11:45.603Z,88.80
2019-05-10T01:14:13.030Z,89.40
2019-05-10T01:16:40.527Z,89.20
2019-05-10T01:19:07.976Z,89.20
2019-05-10T01:21:35.421Z,89.20
2019-05-10T01:24:02.888Z,89.00
2019-05-10T01:26:30.281Z,89.00
2019-05-10T01:28:57.744Z,89.40
2019-05-10T01:31:25.314Z,89.40
2019-05-10T01:33:53.866Z,89.40
2019-05-10T01:36:23.146Z,89.70
2019-05-10T01:38:50.738Z,89.90
2019-05-10T01:41:18.198Z,89.70
2019-05-10T01:43:45.681Z,90.10
2019-05-10T01:46:15.894Z,90.20
2019-05-10T01:48:43.454Z,90.30
2019-05-10T01:51:11.912Z,90.30
2019-05-10T01:53:39.390Z,90.30
2019-05-10T01:56:06.924Z,90.10
2019-05-10T01:58:34.426Z,90.20
2019-05-10T02:01:01.930Z,89.70
2019-05-10T02:03:29.449Z,89.90
2019-05-10T02:05:57.008Z,89.90
2019-05-10T02:08:24.490Z,89.90
2019-05-10T02:10:51.881Z,89.90
2019-05-10T02:13:19.327Z,89.70
2019-05-10T02:15:46.875Z,89.90
2019-05-10T02:18:14.313Z,89.90
2019-05-10T02:20:42.065Z,89.90
2019-05-10T02:23:09.489Z,90.20
2019-05-10T02:25:38.051Z,90.10
2019-05-10T02:28:05.499Z,90.10
2019-05-10T02:30:33.074Z,90.20
2019-05-10T02:33:00.601Z,90.10
2019-05-10T02:35:28.066Z,90.10
2019-05-10T02:37:55.469Z,90.10
2019-05-10T02:40:22.962Z,89.90
2019-05-10T02:42:50.518Z,90.10
2019-05-10T02:45:18.999Z,90.10
2019-05-10T02:47:46.587Z,90.10
2019-05-10T02:50:14.256Z,90.10
2019-05-10T02:52:41.678Z,90.10
2019-05-10T02:55:09.290Z,90.10
2019-05-10T02:57:37.123Z,89.70
2019-05-10T03:00:05.487Z,90.10
2019-05-10T03:02:33.247Z,90.30
2019-05-10T03:05:02.660Z,90.40
2019-05-10T03:07:36.182Z,90.20
2019-05-10T03:10:04.128Z,90.40
2019-05-10T03:12:31.673Z,90.40
2019-05-10T03:14:59.131Z,90.40
2019-05-10T03:17:27.279Z,90.40
2019-05-10T03:19:55.256Z,90.50
2019-05-10T03:22:24.286Z,90.50
2019-05-10T03:24:52.071Z,90.30
2019-05-10T03:27:19.585Z,90.50
2019-05-10T03:29:47.063Z,90.50
2019-05-10T03:32:14.609Z,90.70
2019-05-10T03:34:42.197Z,91.00
2019-05-10T03:37:10.729Z,90.90
2019-05-10T03:39:57.608Z,90.70
2019-05-10T03:42:25.350Z,90.80
2019-05-10T03:44:52.824Z,90.60
2019-05-10T03:47:20.386Z,90.70
2019-05-10T03:49:47.847Z,90.50
2019-05-10T03:52:15.331Z,90.50
2019-05-10T03:54:42.854Z,90.50
2019-05-10T03:57:13.772Z,90.80
2019-05-10T03:59:39.976Z,91.00
2019-05-10T04:02:33.254Z,91.10
2019-05-10T04:05:03.746Z,91.10
2019-05-10T04:07:32.340Z,90.80
2019-05-10T04:09:59.799Z,90.70
2019-05-10T04:12:27.264Z,90.70
2019-05-10T04:14:54.777Z,90.70
2019-05-10T04:17:22.293Z,90.60
2019-05-10T04:19:49.761Z,90.70
2019-05-10T04:22:17.247Z,90.50
2019-05-10T04:24:44.815Z,90.50
2019-05-10T04:27:30.814Z,90.40
2019-05-10T04:29:41.797Z,90.10
2019-05-10T04:32:09.236Z,90.30
2019-05-10T04:34:36.728Z,89.90
2019-05-10T04:37:04.484Z,90.10
2019-05-10T04:39:31.950Z,90.10
2019-05-10T04:41:59.408Z,90.10
2019-05-10T04:44:27.105Z,90.10
2019-05-10T04:46:54.560Z,89.90
2019-05-10T04:49:22.034Z,90.20
2019-05-10T04:51:49.502Z,90.10
2019-05-10T04:54:17.061Z,90.10
2019-05-10T04:56:44.592Z,89.90
2019-05-10T04:59:12.090Z,89.70
2019-05-10T05:01:39.687Z,89.70
2019-05-10T05:04:08.303Z,88.60
2019-05-10T05:06:35.736Z,88.20
2019-05-10T05:09:05.383Z,88.60
2019-05-10T05:11:32.798Z,87.30
2019-05-10T05:14:00.290Z,88.20
2019-05-10T05:16:27.754Z,88.60
2019-05-10T05:18:55.177Z,88.60
2019-05-10T05:21:22.682Z,87.30
2019-05-10T05:23:50.089Z,87.50
2019-05-10T05:26:17.896Z,86.90
2019-05-10T05:28:45.369Z,86.40
2019-05-10T05:31:12.895Z,86.20
2019-05-10T05:33:40.347Z,84.70
2019-05-10T05:36:07.844Z,83.80
2019-05-10T05:38:40.495Z,83.60
2019-05-10T05:41:04.758Z,84.10
2019-05-10T05:43:32.230Z,83.40
2019-05-10T05:45:59.693Z,82.80
2019-05-10T05:48:39.473Z,82.50
2019-05-10T05:50:56.584Z,82.30
2019-05-10T05:53:24.027Z,82.10
2019-05-10T05:55:51.544Z,81.50
2019-05-10T05:58:26.563Z,81.20
2019-05-10T06:00:49.532Z,81.00
2019-05-10T06:03:37.869Z,81.00
2019-05-10T06:06:21.443Z,80.00
2019-05-10T06:08:38.305Z,77.30
2019-05-10T06:11:09.060Z,78.40
2019-05-10T06:13:35.418Z,77.80
2019-05-10T06:16:06.913Z,78.00
2019-05-10T06:18:32.358Z,77.80
2019-05-10T06:20:59.905Z,77.40
2019-05-10T06:23:29.193Z,77.60
2019-05-10T06:25:56.829Z,76.70
2019-05-10T06:28:28.919Z,76.50
2019-05-10T06:30:53.670Z,76.10
2019-05-10T06:33:21.271Z,75.20
2019-05-10T06:35:50.046Z,74.80
2019-05-10T06:38:17.483Z,73.30
2019-05-10T06:40:47.722Z,74.10
2019-05-10T06:43:15.596Z,73.70
2019-05-10T06:45:46.710Z,71.10
2019-05-10T06:48:12.734Z,70.70
2019-05-10T06:50:40.149Z,72.40
2019-05-10T06:53:10.820Z,72.20
2019-05-10T06:55:37.116Z,70.50
2019-05-10T06:58:04.648Z,70.50
2019-05-10T07:00:32.240Z,71.10
2019-05-10T07:02:59.765Z,71.50
2019-05-10T07:05:27.222Z,72.20
2019-05-10T07:08:00.624Z,70.70
2019-05-10T07:10:25.711Z,68.50
2019-05-10T07:12:57.164Z,70.20
2019-05-10T07:15:22.722Z,68.70
2019-05-10T07:17:50.221Z,65.10
2019-05-10T07:20:17.657Z,67.00
2019-05-10T07:22:45.664Z,63.50
2019-05-10T07:25:13.224Z,64.80
2019-05-10T07:27:40.623Z,64.00
2019-05-10T07:30:08.653Z,60.90
2019-05-10T07:32:36.110Z,62.50
2019-05-10T07:35:04.029Z,63.70
2019-05-10T07:37:31.421Z,62.90
2019-05-10T07:39:58.849Z,63.10
2019-05-10T07:42:26.188Z,60.90
2019-05-10T07:44:53.641Z,61.00
2019-05-10T07:47:23.849Z,61.60
2019-05-10T07:49:50.452Z,63.30
2019-05-10T07:52:17.877Z,62.90
2019-05-10T07:54:47.707Z,62.90
2019-05-10T07:57:18.770Z,62.30
2019-05-10T07:59:50.749Z,62.90
2019-05-10T08:02:16.242Z,61.40
2019-05-10T08:04:44.044Z,60.50
2019-05-10T08:07:12.597Z,62.20
2019-05-10T08:09:44.848Z,62.90
2019-05-10T08:12:13.011Z,61.80
2019-05-10T08:14:44.151Z,60.90
2019-05-10T08:17:09.137Z,58.70
2019-05-10T08:19:37.702Z,55.70
2019-05-10T08:22:08.987Z,56.00
2019-05-10T08:24:35.619Z,56.30
2019-05-10T08:27:09.874Z,56.10
2019-05-10T08:29:33.109Z,56.70
2019-05-10T08:32:02.859Z,56.30
2019-05-10T08:34:35.600Z,53.70
2019-05-10T08:37:02.568Z,54.20
2019-05-10T08:39:44.165Z,54.00
2019-05-10T08:42:19.582Z,54.30
2019-05-10T08:44:32.717Z,54.30
2019-05-10T08:47:02.239Z,55.70
2019-05-10T08:49:39.466Z,55.70
2019-05-10T08:51:59.258Z,56.40
2019-05-10T08:54:26.823Z,56.90
2019-05-10T08:57:01.015Z,58.40
2019-05-10T08:59:27.792Z,59.20
2019-05-10T09:01:56.117Z,60.10
2019-05-10T09:04:23.630Z,59.00
2019-05-10T09:06:55.345Z,57.50
2019-05-10T09:09:22.738Z,58.90
2019-05-10T09:11:52.261Z,59.00
2019-05-10T09:14:21.999Z,57.70
2019-05-10T09:16:57.248Z,57.80
2019-05-10T09:19:19.067Z,60.10
2019-05-10T09:21:50.030Z,56.90
2019-05-10T09:24:17.669Z,57.40
2019-05-10T09:26:46.913Z,55.80
2019-05-10T09:29:15.557Z,53.20
2019-05-10T09:31:45.924Z,52.80
2019-05-10T09:34:13.396Z,51.30
2019-05-10T09:36:44.843Z,50.20
2019-05-10T09:39:17.548Z,49.60
2019-05-10T09:41:39.764Z,49.00
2019-05-10T09:44:07.291Z,49.70
2019-05-10T09:46:34.745Z,49.30
2019-05-10T09:49:09.969Z,48.20
2019-05-10T09:51:33.062Z,46.50
2019-05-10T09:54:00.830Z,41.40
2019-05-10T09:56:32.998Z,41.10
2019-05-10T09:58:58.460Z,36.60
2019-05-10T10:01:28.171Z,34.20
2019-05-10T10:03:57.927Z,36.20
2019-05-10T10:06:25.254Z,34.40
2019-05-10T10:08:53.559Z,29.70
2019-05-10T10:11:21.325Z,28.70
2019-05-10T10:13:58.645Z,29.70
2019-05-10T10:16:19.191Z,28.30
2019-05-10T10:18:47.691Z,27.90
2019-05-10T10:21:18.979Z,25.90
2019-05-10T10:23:44.875Z,24.70
2019-05-10T10:26:17.346Z,25.50
2019-05-10T10:28:41.794Z,24.10
2019-05-10T10:31:09.508Z,23.80
2019-05-10T10:33:37.915Z,23.30
2019-05-10T10:36:08.241Z,24.90
2019-05-10T10:38:39.128Z,25.90
2019-05-10T10:41:04.310Z,27.20
2019-05-10T10:43:31.750Z,28.20
2019-05-10T10:45:59.351Z,28.80
2019-05-10T10:48:28.477Z,29.80
2019-05-10T10:50:58.617Z,31.20
2019-05-10T10:53:28.060Z,34.20
2019-05-10T10:56:00.896Z,35.30
2019-05-10T10:58:24.688Z,36.00
2019-05-10T11:00:52.177Z,35.40
2019-05-10T11:03:23.985Z,34.20
2019-05-10T11:05:49.458Z,35.00
2019-05-10T11:08:17.112Z,29.20
2019-05-10T11:10:44.733Z,26.90
2019-05-10T11:13:20.269Z,26.60
2019-05-10T11:15:42.161Z,27.10
2019-05-10T11:18:09.994Z,28.40
2019-05-10T11:20:41.949Z,28.10
2019-05-10T11:23:06.991Z,28.40
2019-05-10T11:25:34.914Z,28.10
2019-05-10T11:28:02.760Z,27.20
2019-05-10T11:30:32.538Z,26.20
2019-05-10T11:33:00.481Z,25.20
2019-05-10T11:35:31.464Z,24.40
2019-05-10T11:37:58.366Z,22.80
2019-05-10T11:40:30.806Z,20.30
2019-05-10T11:42:56.416Z,20.70
2019-05-10T11:45:26.210Z,19.30
2019-05-10T11:47:59.149Z,19.90
2019-05-10T11:50:31.246Z,20.10
2019-05-10T11:52:56.470Z,20.30
2019-05-10T11:55:24.188Z,21.90
2019-05-10T11:59:04.539Z,21.70
2019-05-10T12:00:29.276Z,22.10
2019-05-10T12:03:11.379Z,21.80
2019-05-10T12:10:25.217Z,26.10
2019-05-10T12:15:25.532Z,28.50
2019-05-10T12:17:58.513Z,29.90
2019-05-10T12:20:26.872Z,32.20
2019-05-10T12:22:51.823Z,33.40
2019-05-10T12:25:37.723Z,35.00
2019-05-10T12:26:05.083Z,22.40
2019-05-10T12:26:06.272Z,25.00
2019-05-10T12:26:16.348Z,26.40
2019-05-10T12:27:52.218Z,35.10
2019-05-10T12:30:21.221Z,36.30
2019-05-10T12:32:57.994Z,38.30
2019-05-10T12:35:21.056Z,37.70
2019-05-10T12:37:51.385Z,37.30
2019-05-10T12:40:17.862Z,36.20
2019-05-10T12:42:47.137Z,36.90
2019-05-10T12:45:17.058Z,36.90
2019-05-10T12:47:44.636Z,36.30
2019-05-10T12:50:12.812Z,37.40
2019-05-10T12:52:43.196Z,37.60
2019-05-10T12:55:16.892Z,35.10
2019-05-10T12:57:44.559Z,32.50
2019-05-10T13:00:13.987Z,33.10
2019-05-10T13:02:44.827Z,32.40
2019-05-10T13:05:15.188Z,31.20
2019-05-10T13:07:41.376Z,32.10
2019-05-10T13:10:09.865Z,29.60
2019-05-10T13:12:44.559Z,27.50
2019-05-10T13:15:07.290Z,27.80
2019-05-10T13:17:34.904Z,28.50
2019-05-10T13:20:02.455Z,28.20
2019-05-10T13:22:36.694Z,27.60
2019-05-10T13:25:00.435Z,25.80
2019-05-10T13:27:28.070Z,24.10
2019-05-10T13:29:55.717Z,24.20
2019-05-10T13:32:24.460Z,24.80
2019-05-10T13:34:51.982Z,26.60
2019-05-10T13:37:24.678Z,26.40
2019-05-10T13:39:48.943Z,25.50
2019-05-10T13:42:16.517Z,27.50
2019-05-10T13:44:44.547Z,28.20
2019-05-10T13:47:13.429Z,29.20
2019-05-10T13:49:41.017Z,30.70
2019-05-10T13:52:08.723Z,32.40
2019-05-10T13:54:37.882Z,32.50
2019-05-10T13:57:05.833Z,32.20
2019-05-10T13:59:34.433Z,33.70
2019-05-10T14:02:02.164Z,35.10
2019-05-10T14:04:33.973Z,36.80
2019-05-10T14:07:00.859Z,38.00
2019-05-10T14:09:28.516Z,39.40
2019-05-10T14:11:56.262Z,40.90
2019-05-10T14:14:26.592Z,42.90
2019-05-10T14:16:54.374Z,48.40
2019-05-10T14:19:23.340Z,54.60
2019-05-10T14:21:51.337Z,58.90
2019-05-10T14:24:18.867Z,63.10
2019-05-10T14:26:46.427Z,66.10
2019-05-10T14:29:13.870Z,69.10
2019-05-10T14:31:41.395Z,70.90
2019-05-10T14:34:16.080Z,71.10
2019-05-10T14:36:41.033Z,72.40
2019-05-10T14:39:07.647Z,73.20
2019-05-10T14:41:35.233Z,75.00
2019-05-10T14:44:02.725Z,72.80
2019-05-10T14:46:30.254Z,70.70
2019-05-10T14:49:08.915Z,67.20
2019-05-10T14:51:40.344Z,62.30
2019-05-10T14:53:58.325Z,60.90
2019-05-10T14:56:26.171Z,56.70
2019-05-10T14:58:53.859Z,54.80
2019-05-10T15:01:21.346Z,52.30
2019-05-10T15:03:48.981Z,52.20
2019-05-10T15:06:16.514Z,50.70
2019-05-10T15:08:44.004Z,48.80
2019-05-10T15:11:11.703Z,49.00
2019-05-10T15:13:39.348Z,50.00
2019-05-10T15:16:12.380Z,49.10
2019-05-10T15:18:36.706Z,47.20
2019-05-10T15:21:04.270Z,47.20
2019-05-10T15:23:31.925Z,44.10
2019-05-10T15:26:10.699Z,44.70
2019-05-10T15:28:34.540Z,41.10
2019-05-10T15:30:58.446Z,42.40
2019-05-10T15:33:26.312Z,42.10
2019-05-10T15:35:54.011Z,44.70
2019-05-10T15:38:21.708Z,45.50
2019-05-10T15:40:49.249Z,46.40
2019-05-10T15:43:18.914Z,43.60
2019-05-10T15:45:52.455Z,41.20
2019-05-10T15:48:15.782Z,42.10
2019-05-10T15:50:43.301Z,41.20
2019-05-10T15:53:11.182Z,40.00
2019-05-10T15:55:38.976Z,40.60
2019-05-10T15:58:06.650Z,42.60
2019-05-10T16:00:39.319Z,40.10
2019-05-10T16:03:03.847Z,41.50
2019-05-10T16:05:43.078Z,42.40
2019-05-10T16:08:00.813Z,44.00
2019-05-10T16:10:38.596Z,43.00
2019-05-10T16:12:57.906Z,43.00
2019-05-10T16:15:25.400Z,42.70
2019-05-10T16:17:53.783Z,43.60
2019-05-10T16:20:22.282Z,44.70
2019-05-10T16:22:49.735Z,40.80
2019-05-10T16:25:17.202Z,43.00
2019-05-10T16:27:45.165Z,43.20
2019-05-10T16:30:17.818Z,44.10
2019-05-10T16:32:43.402Z,44.60
2019-05-10T16:35:13.180Z,44.90
2019-05-10T16:37:40.412Z,45.20
2019-05-10T16:40:08.068Z,44.40
2019-05-10T16:42:36.149Z,45.00
2019-05-10T16:45:05.630Z,44.90
2019-05-10T16:47:33.399Z,44.90
2019-05-10T16:50:00.957Z,44.30
2019-05-10T16:52:28.387Z,44.40
2019-05-10T16:54:57.836Z,44.40
2019-05-10T16:57:25.232Z,45.00
2019-05-10T16:59:52.685Z,44.40
2019-05-10T17:02:20.150Z,45.50
2019-05-10T17:04:53.308Z,46.10
2019-05-10T17:07:20.830Z,45.90
2019-05-10T17:09:49.434Z,46.50
2019-05-10T17:12:22.133Z,46.20
2019-05-10T17:14:50.641Z,45.00
2019-05-10T17:17:16.493Z,45.20
2019-05-10T17:19:44.140Z,44.40
2019-05-10T17:22:11.730Z,45.60
2019-05-10T17:24:40.588Z,45.90
2019-05-10T17:27:08.172Z,47.60
2019-05-10T17:29:36.242Z,48.70
2019-05-10T17:32:03.718Z,49.30
2019-05-10T17:34:31.359Z,49.00
2019-05-10T17:36:59.844Z,49.70
2019-05-10T17:39:32.347Z,50.00
2019-05-10T17:41:57.740Z,50.00
2019-05-10T17:44:26.382Z,51.00
2019-05-10T17:46:55.456Z,51.60
2019-05-10T17:49:23.419Z,51.10
2019-05-10T17:51:50.904Z,51.70
2019-05-10T17:54:18.355Z,51.00
2019-05-10T17:56:45.919Z,51.70
2019-05-10T17:59:13.986Z,54.20
2019-05-10T18:01:41.782Z,54.20
2019-05-10T18:04:09.360Z,53.50
2019-05-10T18:06:37.108Z,54.20
2019-05-10T18:09:06.241Z,54.90
2019-05-10T18:11:36.808Z,54.80
2019-05-10T18:14:04.184Z,54.50
2019-05-10T18:16:31.866Z,54.80
2019-05-10T18:18:59.346Z,55.70
2019-05-10T18:21:26.859Z,55.20
2019-05-10T18:23:58.350Z,56.60
2019-05-10T18:26:23.901Z,56.70
2019-05-10T18:28:51.400Z,57.40
2019-05-10T18:31:19.157Z,58.00
2019-05-10T18:33:54.224Z,58.60
2019-05-10T18:36:17.312Z,59.20
2019-05-10T18:38:44.763Z,60.50
2019-05-10T18:41:12.689Z,61.40
2019-05-10T18:43:42.681Z,62.70
2019-05-10T18:46:10.082Z,63.50
2019-05-10T18:48:37.780Z,64.60
2019-05-10T18:51:05.281Z,65.10
2019-05-10T18:53:32.810Z,64.80
2019-05-10T18:56:00.502Z,65.30
2019-05-10T18:58:29.111Z,66.60
2019-05-10T19:01:00.778Z,67.40
2019-05-10T19:03:27.902Z,68.30
2019-05-10T19:05:56.466Z,69.10
2019-05-10T19:08:24.100Z,69.60
2019-05-10T19:10:51.778Z,69.20
2019-05-10T19:13:19.636Z,69.20
2019-05-10T19:15:53.112Z,69.20
2019-05-10T19:18:23.109Z,68.90
2019-05-10T19:20:48.727Z,68.70
2019-05-10T19:23:19.662Z,70.00
2019-05-10T19:25:51.680Z,71.30
2019-05-10T19:28:20.850Z,71.70
2019-05-10T19:30:45.427Z,72.00
2019-05-10T19:33:13.095Z,72.60
2019-05-10T19:35:40.860Z,73.30
2019-05-10T19:38:08.564Z,73.50
2019-05-10T19:40:36.233Z,73.70
2019-05-10T19:43:03.970Z,73.90
2019-05-10T19:45:31.488Z,74.10
2019-05-10T19:47:59.100Z,72.60
2019-05-10T19:50:31.095Z,73.20
2019-05-10T19:52:58.305Z,72.40
2019-05-10T19:55:27.139Z,73.30
2019-05-10T19:57:56.504Z,73.70
2019-05-10T20:00:24.144Z,74.30
2019-05-10T20:02:51.786Z,73.50
2019-05-10T20:05:19.298Z,72.60
2019-05-10T20:07:46.886Z,72.00
2019-05-10T20:10:14.694Z,72.20
2019-05-10T20:12:42.531Z,72.80
2019-05-10T20:15:10.008Z,73.30
2019-05-10T20:17:38.129Z,73.90
2019-05-10T20:20:06.087Z,74.30
2019-05-10T20:22:36.198Z,75.20
2019-05-10T20:25:03.636Z,75.40
2019-05-10T20:27:31.200Z,75.40
2019-05-10T20:29:58.861Z,75.00
2019-05-10T20:32:26.329Z,74.80
2019-05-10T20:34:54.013Z,74.30
2019-05-10T20:37:21.544Z,74.60
2019-05-10T20:39:49.197Z,74.10
2019-05-10T20:42:16.653Z,72.80
2019-05-10T20:44:44.104Z,73.20
2019-05-10T20:47:11.727Z,73.50
2019-05-10T20:49:39.342Z,73.70
2019-05-10T20:52:07.013Z,74.60
2019-05-10T20:54:34.633Z,75.00
2019-05-10T20:57:02.165Z,75.40
2019-05-10T20:59:29.735Z,76.10
2019-05-10T21:01:57.362Z,76.50
2019-05-10T21:04:24.994Z,77.30
2019-05-10T21:06:52.704Z,77.10
2019-05-10T21:09:21.389Z,77.40
2019-05-10T21:11:49.052Z,77.30
2019-05-10T21:14:16.912Z,77.10
2019-05-10T21:16:44.642Z,77.40
2019-05-10T21:19:14.466Z,77.30
2019-05-10T21:21:41.935Z,76.70
2019-05-10T21:24:09.494Z,76.70
2019-05-10T21:26:37.107Z,76.90
2019-05-10T21:29:04.651Z,76.70
2019-05-10T21:31:32.208Z,76.90
2019-05-10T21:34:09.415Z,76.90
2019-05-10T21:36:29.211Z,75.80
2019-05-10T21:38:56.836Z,75.80
2019-05-10T21:41:24.424Z,76.30
2019-05-10T21:43:52.057Z,77.30
2019-05-10T21:46:19.669Z,77.10
2019-05-10T21:48:47.240Z,78.00
2019-05-10T21:51:16.212Z,78.60
2019-05-10T21:53:43.870Z,80.00
2019-05-10T21:56:11.380Z,80.60
2019-05-10T21:58:39.082Z,81.00
2019-05-10T22:01:07.034Z,80.60
2019-05-10T22:03:34.668Z,80.00
2019-05-10T22:06:02.239Z,81.40
2019-05-10T22:08:29.957Z,81.70
2019-05-10T22:10:57.604Z,82.50
2019-05-10T22:13:25.470Z,82.80
2019-05-10T22:15:54.150Z,83.00
2019-05-10T22:18:21.755Z,83.20
2019-05-10T22:20:49.299Z,83.20
2019-05-10T22:23:16.791Z,83.60
2019-05-10T22:25:44.276Z,83.00
2019-05-10T22:28:11.783Z,82.30
2019-05-10T22:30:39.421Z,82.10
2019-05-10T22:33:07.010Z,81.70
2019-05-10T22:35:34.490Z,81.40
2019-05-10T22:38:02.045Z,77.80
2019-05-10T22:40:29.864Z,78.20
2019-05-10T22:42:57.457Z,76.30
2019-05-10T22:45:24.978Z,76.30
2019-05-10T22:47:52.494Z,74.80
2019-05-10T22:50:20.178Z,75.60
2019-05-10T22:52:47.710Z,77.30
2019-05-10T22:55:15.352Z,78.40
2019-05-10T22:57:43.068Z,80.60
2019-05-10T23:00:11.054Z,81.00
2019-05-10T23:02:39.769Z,83.60
2019-05-10T23:05:07.460Z,84.00
2019-05-10T23:07:35.165Z,85.60
2019-05-10T23:10:02.867Z,86.80
2019-05-10T23:12:30.513Z,87.50
2019-05-10T23:14:58.081Z,88.80
2019-05-10T23:17:26.811Z,89.00
2019-05-10T23:19:54.320Z,89.60
2019-05-10T23:22:22.061Z,89.90
2019-05-10T23:24:50.519Z,90.10
2019-05-10T23:27:17.993Z,90.60
2019-05-10T23:29:45.552Z,91.10
2019-05-10T23:32:13.110Z,91.30
2019-05-10T23:34:40.561Z,91.50
2019-05-10T23:37:08.188Z,91.50
2019-05-10T23:39:40.642Z,91.60
2019-05-10T23:42:05.193Z,91.80
2019-05-10T23:44:32.787Z,91.50
2019-05-10T23:47:01.442Z,92.20
2019-05-10T23:49:28.904Z,91.80
2019-05-10T23:51:56.428Z,92.00
2019-05-10T23:54:23.962Z,92.20
2019-05-10T23:56:51.447Z,92.30
2019-05-10T23:59:19.355Z,92.50
